sensor_id;sensor_type;location;lat;lon;timestamp;pressure;altitude;pressure_sealevel;temperature
68588;BMP180;55560;52.174;20.996;2024-02-26T00:00:25;99649.20;;;8.10
68588;BMP180;55560;52.174;20.996;2024-02-26T00:03:12;99643.80;;;8.10
68588;BMP180;55560;52.174;20.996;2024-02-26T00:05:41;99644.40;;;8.06
68588;BMP180;55560;52.174;20.996;2024-02-26T00:08:09;99634.60;;;8.04
68588;BMP180;55560;52.174;20.996;2024-02-26T00:10:37;99634.20;;;8.08
68588;BMP180;55560;52.174;20.996;2024-02-26T00:13:05;99638.40;;;8.08
68588;BMP180;55560;52.174;20.996;2024-02-26T00:15:33;99638.80;;;8.00
68588;BMP180;55560;52.174;20.996;2024-02-26T00:18:03;99646.60;;;7.94
68588;BMP180;55560;52.174;20.996;2024-02-26T00:20:31;99649.20;;;7.90
68588;BMP180;55560;52.174;20.996;2024-02-26T00:22:59;99643.60;;;7.90
68588;BMP180;55560;52.174;20.996;2024-02-26T00:25:27;99645.80;;;7.90
68588;BMP180;55560;52.174;20.996;2024-02-26T00:27:55;99647.40;;;7.80
68588;BMP180;55560;52.174;20.996;2024-02-26T00:30:23;99645.80;;;7.80
68588;BMP180;55560;52.174;20.996;2024-02-26T00:32:51;99646.60;;;7.70
68588;BMP180;55560;52.174;20.996;2024-02-26T00:35:19;99648.20;;;7.70
68588;BMP180;55560;52.174;20.996;2024-02-26T00:37:48;99640.60;;;7.70
68588;BMP180;55560;52.174;20.996;2024-02-26T00:40:16;99638.40;;;7.62
68588;BMP180;55560;52.174;20.996;2024-02-26T00:42:44;99632.60;;;7.64
68588;BMP180;55560;52.174;20.996;2024-02-26T00:45:14;99633.20;;;7.66
68588;BMP180;55560;52.174;20.996;2024-02-26T00:47:44;99631.20;;;7.66
68588;BMP180;55560;52.174;20.996;2024-02-26T00:50:14;99627.60;;;7.64
68588;BMP180;55560;52.174;20.996;2024-02-26T00:52:43;99628.60;;;7.68
68588;BMP180;55560;52.174;20.996;2024-02-26T00:55:11;99629.80;;;7.60
68588;BMP180;55560;52.174;20.996;2024-02-26T00:57:39;99632.80;;;7.60
68588;BMP180;55560;52.174;20.996;2024-02-26T01:00:08;99628.60;;;7.60
68588;BMP180;55560;52.174;20.996;2024-02-26T01:02:36;99628.20;;;7.60
68588;BMP180;55560;52.174;20.996;2024-02-26T01:05:06;99631.00;;;7.60
68588;BMP180;55560;52.174;20.996;2024-02-26T01:07:35;99629.00;;;7.52
68588;BMP180;55560;52.174;20.996;2024-02-26T01:10:04;99630.40;;;7.50
68588;BMP180;55560;52.174;20.996;2024-02-26T01:12:34;99623.20;;;7.50
68588;BMP180;55560;52.174;20.996;2024-02-26T01:15:03;99626.40;;;7.50
68588;BMP180;55560;52.174;20.996;2024-02-26T01:17:32;99629.40;;;7.44
68588;BMP180;55560;52.174;20.996;2024-02-26T01:20:00;99631.20;;;7.40
68588;BMP180;55560;52.174;20.996;2024-02-26T01:22:28;99628.60;;;7.40
68588;BMP180;55560;52.174;20.996;2024-02-26T01:24:56;99625.60;;;7.40
68588;BMP180;55560;52.174;20.996;2024-02-26T01:27:24;99625.40;;;7.40
68588;BMP180;55560;52.174;20.996;2024-02-26T01:29:54;99628.80;;;7.40
68588;BMP180;55560;52.174;20.996;2024-02-26T01:32:23;99623.00;;;7.40
68588;BMP180;55560;52.174;20.996;2024-02-26T01:34:51;99625.20;;;7.36
68588;BMP180;55560;52.174;20.996;2024-02-26T01:37:18;99620.40;;;7.30
68588;BMP180;55560;52.174;20.996;2024-02-26T01:39:46;99622.40;;;7.30
68588;BMP180;55560;52.174;20.996;2024-02-26T01:42:14;99627.20;;;7.30
68588;BMP180;55560;52.174;20.996;2024-02-26T01:44:42;99636.20;;;7.30
68588;BMP180;55560;52.174;20.996;2024-02-26T01:47:12;99630.80;;;7.30
68588;BMP180;55560;52.174;20.996;2024-02-26T01:49:40;99629.20;;;7.30
68588;BMP180;55560;52.174;20.996;2024-02-26T01:52:09;99628.80;;;7.30
68588;BMP180;55560;52.174;20.996;2024-02-26T01:54:39;99626.80;;;7.28
68588;BMP180;55560;52.174;20.996;2024-02-26T01:57:08;99624.20;;;7.20
68588;BMP180;55560;52.174;20.996;2024-02-26T01:59:37;99628.00;;;7.20
68588;BMP180;55560;52.174;20.996;2024-02-26T02:02:08;99629.00;;;7.20
68588;BMP180;55560;52.174;20.996;2024-02-26T02:04:38;99622.20;;;7.20
68588;BMP180;55560;52.174;20.996;2024-02-26T02:07:07;99625.40;;;7.20
68588;BMP180;55560;52.174;20.996;2024-02-26T02:09:35;99622.40;;;7.18
68588;BMP180;55560;52.174;20.996;2024-02-26T02:12:03;99619.40;;;7.10
68588;BMP180;55560;52.174;20.996;2024-02-26T02:14:32;99622.80;;;7.10
68588;BMP180;55560;52.174;20.996;2024-02-26T02:16:59;99622.80;;;7.10
68588;BMP180;55560;52.174;20.996;2024-02-26T02:19:27;99622.60;;;7.00
68588;BMP180;55560;52.174;20.996;2024-02-26T02:21:55;99622.60;;;7.00
68588;BMP180;55560;52.174;20.996;2024-02-26T02:24:23;99625.40;;;7.00
68588;BMP180;55560;52.174;20.996;2024-02-26T02:26:52;99626.80;;;7.00
68588;BMP180;55560;52.174;20.996;2024-02-26T02:29:20;99627.60;;;7.00
68588;BMP180;55560;52.174;20.996;2024-02-26T02:31:48;99622.80;;;6.92
68588;BMP180;55560;52.174;20.996;2024-02-26T02:34:16;99623.00;;;6.90
68588;BMP180;55560;52.174;20.996;2024-02-26T02:36:54;99625.40;;;6.80
68588;BMP180;55560;52.174;20.996;2024-02-26T02:39:22;99631.80;;;6.80
68588;BMP180;55560;52.174;20.996;2024-02-26T02:41:50;99627.20;;;6.80
68588;BMP180;55560;52.174;20.996;2024-02-26T02:44:18;99633.80;;;6.80
68588;BMP180;55560;52.174;20.996;2024-02-26T02:46:46;99631.40;;;6.74
68588;BMP180;55560;52.174;20.996;2024-02-26T02:49:14;99630.00;;;6.70
68588;BMP180;55560;52.174;20.996;2024-02-26T02:51:42;99634.60;;;6.70
68588;BMP180;55560;52.174;20.996;2024-02-26T02:54:10;99640.00;;;6.60
68588;BMP180;55560;52.174;20.996;2024-02-26T02:56:38;99639.40;;;6.60
68588;BMP180;55560;52.174;20.996;2024-02-26T02:59:06;99645.40;;;6.60
68588;BMP180;55560;52.174;20.996;2024-02-26T03:01:34;99647.20;;;6.60
68588;BMP180;55560;52.174;20.996;2024-02-26T03:04:01;99646.40;;;6.60
68588;BMP180;55560;52.174;20.996;2024-02-26T03:06:29;99648.20;;;6.60
68588;BMP180;55560;52.174;20.996;2024-02-26T03:08:57;99649.80;;;6.50
68588;BMP180;55560;52.174;20.996;2024-02-26T03:11:25;99651.60;;;6.60
68588;BMP180;55560;52.174;20.996;2024-02-26T03:13:54;99647.80;;;6.60
68588;BMP180;55560;52.174;20.996;2024-02-26T03:16:22;99651.80;;;6.60
68588;BMP180;55560;52.174;20.996;2024-02-26T03:18:50;99653.20;;;6.60
68588;BMP180;55560;52.174;20.996;2024-02-26T03:21:18;99656.60;;;6.60
68588;BMP180;55560;52.174;20.996;2024-02-26T03:23:47;99653.60;;;6.60
68588;BMP180;55560;52.174;20.996;2024-02-26T03:26:15;99655.60;;;6.60
68588;BMP180;55560;52.174;20.996;2024-02-26T03:28:43;99658.80;;;6.60
68588;BMP180;55560;52.174;20.996;2024-02-26T03:31:11;99661.00;;;6.60
68588;BMP180;55560;52.174;20.996;2024-02-26T03:33:40;99662.20;;;6.60
68588;BMP180;55560;52.174;20.996;2024-02-26T03:36:08;99660.00;;;6.54
68588;BMP180;55560;52.174;20.996;2024-02-26T03:38:37;99659.00;;;6.50
68588;BMP180;55560;52.174;20.996;2024-02-26T03:41:05;99654.60;;;6.50
68588;BMP180;55560;52.174;20.996;2024-02-26T03:43:32;99660.60;;;6.50
68588;BMP180;55560;52.174;20.996;2024-02-26T03:46:01;99658.80;;;6.50
68588;BMP180;55560;52.174;20.996;2024-02-26T03:48:29;99655.00;;;6.40
68588;BMP180;55560;52.174;20.996;2024-02-26T03:50:57;99653.20;;;6.40
68588;BMP180;55560;52.174;20.996;2024-02-26T03:53:25;99651.80;;;6.38
68588;BMP180;55560;52.174;20.996;2024-02-26T03:55:53;99654.80;;;6.30
68588;BMP180;55560;52.174;20.996;2024-02-26T03:58:22;99651.60;;;6.30
68588;BMP180;55560;52.174;20.996;2024-02-26T04:00:50;99654.60;;;6.30
68588;BMP180;55560;52.174;20.996;2024-02-26T04:03:18;99657.80;;;6.30
68588;BMP180;55560;52.174;20.996;2024-02-26T04:05:46;99654.40;;;6.30
68588;BMP180;55560;52.174;20.996;2024-02-26T04:08:15;99658.60;;;6.30
68588;BMP180;55560;52.174;20.996;2024-02-26T04:10:43;99658.40;;;6.30
68588;BMP180;55560;52.174;20.996;2024-02-26T04:13:11;99656.40;;;6.30
68588;BMP180;55560;52.174;20.996;2024-02-26T04:15:39;99656.00;;;6.30
68588;BMP180;55560;52.174;20.996;2024-02-26T04:18:07;99654.00;;;6.30
68588;BMP180;55560;52.174;20.996;2024-02-26T04:20:35;99653.20;;;6.30
68588;BMP180;55560;52.174;20.996;2024-02-26T04:23:04;99651.80;;;6.30
68588;BMP180;55560;52.174;20.996;2024-02-26T04:25:31;99650.60;;;6.30
68588;BMP180;55560;52.174;20.996;2024-02-26T04:27:59;99646.20;;;6.30
68588;BMP180;55560;52.174;20.996;2024-02-26T04:30:27;99646.40;;;6.30
68588;BMP180;55560;52.174;20.996;2024-02-26T04:32:55;99647.20;;;6.30
68588;BMP180;55560;52.174;20.996;2024-02-26T04:35:23;99641.80;;;6.30
68588;BMP180;55560;52.174;20.996;2024-02-26T04:37:52;99643.00;;;6.30
68588;BMP180;55560;52.174;20.996;2024-02-26T04:40:20;99645.20;;;6.30
68588;BMP180;55560;52.174;20.996;2024-02-26T04:42:47;99648.00;;;6.30
68588;BMP180;55560;52.174;20.996;2024-02-26T04:45:15;99651.00;;;6.28
68588;BMP180;55560;52.174;20.996;2024-02-26T04:47:43;99644.00;;;6.20
68588;BMP180;55560;52.174;20.996;2024-02-26T04:50:11;99647.60;;;6.20
68588;BMP180;55560;52.174;20.996;2024-02-26T04:52:39;99650.40;;;6.20
68588;BMP180;55560;52.174;20.996;2024-02-26T04:55:07;99651.20;;;6.20
68588;BMP180;55560;52.174;20.996;2024-02-26T04:57:35;99653.00;;;6.20
68588;BMP180;55560;52.174;20.996;2024-02-26T05:00:05;99654.40;;;6.12
68588;BMP180;55560;52.174;20.996;2024-02-26T05:02:33;99656.80;;;6.10
68588;BMP180;55560;52.174;20.996;2024-02-26T05:05:06;99660.80;;;6.10
68588;BMP180;55560;52.174;20.996;2024-02-26T05:07:40;99660.60;;;6.10
68588;BMP180;55560;52.174;20.996;2024-02-26T05:10:09;99665.20;;;6.10
68588;BMP180;55560;52.174;20.996;2024-02-26T05:12:37;99664.00;;;6.06
68588;BMP180;55560;52.174;20.996;2024-02-26T05:15:05;99663.00;;;6.00
68588;BMP180;55560;52.174;20.996;2024-02-26T05:17:34;99662.60;;;6.00
68588;BMP180;55560;52.174;20.996;2024-02-26T05:20:02;99663.80;;;6.00
68588;BMP180;55560;52.174;20.996;2024-02-26T05:22:31;99662.80;;;6.00
68588;BMP180;55560;52.174;20.996;2024-02-26T05:24:59;99664.80;;;6.00
68588;BMP180;55560;52.174;20.996;2024-02-26T05:27:27;99668.40;;;6.02
68588;BMP180;55560;52.174;20.996;2024-02-26T05:29:55;99667.00;;;6.10
68588;BMP180;55560;52.174;20.996;2024-02-26T05:32:24;99672.80;;;6.10
68588;BMP180;55560;52.174;20.996;2024-02-26T05:34:51;99673.80;;;6.20
68588;BMP180;55560;52.174;20.996;2024-02-26T05:37:19;99672.40;;;6.20
68588;BMP180;55560;52.174;20.996;2024-02-26T05:39:47;99677.20;;;6.20
68588;BMP180;55560;52.174;20.996;2024-02-26T05:42:15;99678.40;;;6.24
68588;BMP180;55560;52.174;20.996;2024-02-26T05:44:43;99682.40;;;6.30
68588;BMP180;55560;52.174;20.996;2024-02-26T05:47:11;99683.00;;;6.30
68588;BMP180;55560;52.174;20.996;2024-02-26T05:49:39;99687.00;;;6.30
68588;BMP180;55560;52.174;20.996;2024-02-26T05:52:08;99683.80;;;6.30
68588;BMP180;55560;52.174;20.996;2024-02-26T05:54:36;99683.20;;;6.40
68588;BMP180;55560;52.174;20.996;2024-02-26T05:57:04;99680.80;;;6.40
68588;BMP180;55560;52.174;20.996;2024-02-26T05:59:32;99678.80;;;6.40
68588;BMP180;55560;52.174;20.996;2024-02-26T06:02:00;99683.20;;;6.46
68588;BMP180;55560;52.174;20.996;2024-02-26T06:04:28;99683.80;;;6.50
68588;BMP180;55560;52.174;20.996;2024-02-26T06:06:57;99683.60;;;6.50
68588;BMP180;55560;52.174;20.996;2024-02-26T06:09:25;99691.20;;;6.52
68588;BMP180;55560;52.174;20.996;2024-02-26T06:11:53;99691.80;;;6.60
68588;BMP180;55560;52.174;20.996;2024-02-26T06:14:21;99693.60;;;6.60
68588;BMP180;55560;52.174;20.996;2024-02-26T06:16:49;99699.40;;;6.68
68588;BMP180;55560;52.174;20.996;2024-02-26T06:19:17;99698.40;;;6.70
68588;BMP180;55560;52.174;20.996;2024-02-26T06:21:45;99700.20;;;6.72
68588;BMP180;55560;52.174;20.996;2024-02-26T06:24:13;99699.40;;;6.80
68588;BMP180;55560;52.174;20.996;2024-02-26T06:26:41;99697.20;;;6.86
68588;BMP180;55560;52.174;20.996;2024-02-26T06:29:09;99697.40;;;6.90
68588;BMP180;55560;52.174;20.996;2024-02-26T06:31:37;99691.00;;;6.90
68588;BMP180;55560;52.174;20.996;2024-02-26T06:34:05;99690.80;;;6.90
68588;BMP180;55560;52.174;20.996;2024-02-26T06:36:33;99697.40;;;7.00
68588;BMP180;55560;52.174;20.996;2024-02-26T06:39:02;99702.40;;;7.00
68588;BMP180;55560;52.174;20.996;2024-02-26T06:41:30;99702.20;;;7.02
68588;BMP180;55560;52.174;20.996;2024-02-26T06:43:58;99699.60;;;7.10
68588;BMP180;55560;52.174;20.996;2024-02-26T06:46:26;99700.80;;;7.14
68588;BMP180;55560;52.174;20.996;2024-02-26T06:48:56;99706.00;;;7.20
68588;BMP180;55560;52.174;20.996;2024-02-26T06:51:24;99707.40;;;7.30
68588;BMP180;55560;52.174;20.996;2024-02-26T06:53:52;99708.00;;;7.40
68588;BMP180;55560;52.174;20.996;2024-02-26T06:56:21;99711.80;;;7.44
68588;BMP180;55560;52.174;20.996;2024-02-26T06:58:49;99711.60;;;7.50
68588;BMP180;55560;52.174;20.996;2024-02-26T07:01:18;99708.40;;;7.56
68588;BMP180;55560;52.174;20.996;2024-02-26T07:03:46;99713.20;;;7.60
68588;BMP180;55560;52.174;20.996;2024-02-26T07:06:14;99718.80;;;7.60
68588;BMP180;55560;52.174;20.996;2024-02-26T07:08:42;99718.00;;;7.70
68588;BMP180;55560;52.174;20.996;2024-02-26T07:11:10;99718.00;;;7.72
68588;BMP180;55560;52.174;20.996;2024-02-26T07:13:38;99718.80;;;7.80
68588;BMP180;55560;52.174;20.996;2024-02-26T07:16:09;99722.00;;;7.80
68588;BMP180;55560;52.174;20.996;2024-02-26T07:18:39;99724.80;;;7.90
68588;BMP180;55560;52.174;20.996;2024-02-26T07:21:08;99725.00;;;7.90
68588;BMP180;55560;52.174;20.996;2024-02-26T07:23:36;99728.40;;;8.00
68588;BMP180;55560;52.174;20.996;2024-02-26T07:26:04;99728.20;;;8.00
68588;BMP180;55560;52.174;20.996;2024-02-26T07:28:32;99729.60;;;8.10
68588;BMP180;55560;52.174;20.996;2024-02-26T07:30:59;99733.40;;;8.20
68588;BMP180;55560;52.174;20.996;2024-02-26T07:33:27;99734.00;;;8.20
68588;BMP180;55560;52.174;20.996;2024-02-26T07:35:56;99733.80;;;8.30
68588;BMP180;55560;52.174;20.996;2024-02-26T07:38:23;99737.60;;;8.40
68588;BMP180;55560;52.174;20.996;2024-02-26T07:41:08;99733.60;;;8.50
68588;BMP180;55560;52.174;20.996;2024-02-26T07:43:37;99737.60;;;8.60
68588;BMP180;55560;52.174;20.996;2024-02-26T07:46:05;99740.60;;;8.78
68588;BMP180;55560;52.174;20.996;2024-02-26T07:48:33;99738.20;;;8.90
68588;BMP180;55560;52.174;20.996;2024-02-26T07:51:01;99738.00;;;9.08
68588;BMP180;55560;52.174;20.996;2024-02-26T07:53:31;99740.40;;;9.20
68588;BMP180;55560;52.174;20.996;2024-02-26T07:55:59;99741.80;;;9.30
68588;BMP180;55560;52.174;20.996;2024-02-26T07:58:27;99743.40;;;9.44
68588;BMP180;55560;52.174;20.996;2024-02-26T08:00:54;99745.00;;;9.60
68588;BMP180;55560;52.174;20.996;2024-02-26T08:03:22;99740.40;;;9.70
68588;BMP180;55560;52.174;20.996;2024-02-26T08:05:51;99744.40;;;9.90
68588;BMP180;55560;52.174;20.996;2024-02-26T08:08:19;99744.60;;;10.10
68588;BMP180;55560;52.174;20.996;2024-02-26T08:10:47;99752.20;;;10.22
68588;BMP180;55560;52.174;20.996;2024-02-26T08:13:15;99752.60;;;10.68
68588;BMP180;55560;52.174;20.996;2024-02-26T08:15:43;99753.80;;;11.16
68588;BMP180;55560;52.174;20.996;2024-02-26T08:18:11;99756.60;;;11.62
68588;BMP180;55560;52.174;20.996;2024-02-26T08:20:39;99756.80;;;12.00
68588;BMP180;55560;52.174;20.996;2024-02-26T08:23:07;99757.00;;;12.46
68588;BMP180;55560;52.174;20.996;2024-02-26T08:25:35;99760.60;;;13.28
68588;BMP180;55560;52.174;20.996;2024-02-26T08:28:03;99763.40;;;13.64
68588;BMP180;55560;52.174;20.996;2024-02-26T08:30:31;99757.80;;;14.20
68588;BMP180;55560;52.174;20.996;2024-02-26T08:32:59;99767.80;;;14.68
68588;BMP180;55560;52.174;20.996;2024-02-26T08:35:27;99771.00;;;14.86
68588;BMP180;55560;52.174;20.996;2024-02-26T08:37:55;99770.40;;;14.58
68588;BMP180;55560;52.174;20.996;2024-02-26T08:40:24;99767.60;;;14.40
68588;BMP180;55560;52.174;20.996;2024-02-26T08:42:51;99770.00;;;14.20
68588;BMP180;55560;52.174;20.996;2024-02-26T08:45:20;99773.80;;;14.16
68588;BMP180;55560;52.174;20.996;2024-02-26T08:47:48;99776.20;;;14.06
68588;BMP180;55560;52.174;20.996;2024-02-26T08:50:16;99777.40;;;14.20
68588;BMP180;55560;52.174;20.996;2024-02-26T08:52:44;99772.60;;;14.50
68588;BMP180;55560;52.174;20.996;2024-02-26T08:55:17;99776.20;;;14.60
68588;BMP180;55560;52.174;20.996;2024-02-26T08:57:45;99778.40;;;14.80
68588;BMP180;55560;52.174;20.996;2024-02-26T09:00:14;99773.60;;;15.70
68588;BMP180;55560;52.174;20.996;2024-02-26T09:02:43;99772.00;;;16.42
68588;BMP180;55560;52.174;20.996;2024-02-26T09:05:12;99773.80;;;16.70
68588;BMP180;55560;52.174;20.996;2024-02-26T09:07:40;99772.80;;;16.70
68588;BMP180;55560;52.174;20.996;2024-02-26T09:10:08;99780.60;;;16.50
68588;BMP180;55560;52.174;20.996;2024-02-26T09:12:38;99782.40;;;16.16
68588;BMP180;55560;52.174;20.996;2024-02-26T09:15:07;99784.40;;;15.76
68588;BMP180;55560;52.174;20.996;2024-02-26T09:17:36;99780.20;;;15.46
68588;BMP180;55560;52.174;20.996;2024-02-26T09:20:05;99780.40;;;15.24
68588;BMP180;55560;52.174;20.996;2024-02-26T09:22:33;99778.00;;;15.06
68588;BMP180;55560;52.174;20.996;2024-02-26T09:25:02;99783.20;;;14.90
68588;BMP180;55560;52.174;20.996;2024-02-26T09:27:31;99780.80;;;14.70
68588;BMP180;55560;52.174;20.996;2024-02-26T09:29:59;99785.00;;;14.60
68588;BMP180;55560;52.174;20.996;2024-02-26T09:32:27;99781.80;;;14.50
68588;BMP180;55560;52.174;20.996;2024-02-26T09:34:55;99781.40;;;14.40
68588;BMP180;55560;52.174;20.996;2024-02-26T09:37:23;99781.80;;;14.32
68588;BMP180;55560;52.174;20.996;2024-02-26T09:39:51;99780.60;;;14.30
68588;BMP180;55560;52.174;20.996;2024-02-26T09:42:19;99786.60;;;14.20
68588;BMP180;55560;52.174;20.996;2024-02-26T09:44:50;99785.00;;;14.04
68588;BMP180;55560;52.174;20.996;2024-02-26T09:47:19;99781.60;;;13.90
68588;BMP180;55560;52.174;20.996;2024-02-26T09:49:49;99781.80;;;13.90
68588;BMP180;55560;52.174;20.996;2024-02-26T09:52:19;99781.20;;;13.90
68588;BMP180;55560;52.174;20.996;2024-02-26T09:54:47;99784.20;;;13.80
68588;BMP180;55560;52.174;20.996;2024-02-26T09:57:15;99786.00;;;13.72
68588;BMP180;55560;52.174;20.996;2024-02-26T09:59:46;99792.00;;;13.70
68588;BMP180;55560;52.174;20.996;2024-02-26T10:02:17;99802.60;;;13.66
68588;BMP180;55560;52.174;20.996;2024-02-26T10:04:47;99801.00;;;13.50
68588;BMP180;55560;52.174;20.996;2024-02-26T10:07:19;99806.60;;;13.40
68588;BMP180;55560;52.174;20.996;2024-02-26T10:09:48;99807.00;;;13.30
68588;BMP180;55560;52.174;20.996;2024-02-26T10:12:19;99805.80;;;13.20
68588;BMP180;55560;52.174;20.996;2024-02-26T10:14:47;99806.40;;;13.20
68588;BMP180;55560;52.174;20.996;2024-02-26T10:17:15;99800.20;;;13.10
68588;BMP180;55560;52.174;20.996;2024-02-26T10:19:43;99803.00;;;13.10
68588;BMP180;55560;52.174;20.996;2024-02-26T10:22:12;99801.20;;;13.10
68588;BMP180;55560;52.174;20.996;2024-02-26T10:24:40;99804.40;;;13.00
68588;BMP180;55560;52.174;20.996;2024-02-26T10:27:08;99798.80;;;12.90
68588;BMP180;55560;52.174;20.996;2024-02-26T10:29:36;99799.80;;;12.78
68588;BMP180;55560;52.174;20.996;2024-02-26T10:32:04;99803.00;;;12.70
68588;BMP180;55560;52.174;20.996;2024-02-26T10:34:32;99799.80;;;12.70
68588;BMP180;55560;52.174;20.996;2024-02-26T10:37:02;99805.60;;;12.62
68588;BMP180;55560;52.174;20.996;2024-02-26T10:39:31;99806.40;;;12.60
68588;BMP180;55560;52.174;20.996;2024-02-26T10:41:59;99814.40;;;12.60
68588;BMP180;55560;52.174;20.996;2024-02-26T10:44:32;99812.20;;;12.50
68588;BMP180;55560;52.174;20.996;2024-02-26T10:47:01;99819.40;;;12.40
68588;BMP180;55560;52.174;20.996;2024-02-26T10:49:29;99823.40;;;12.32
68588;BMP180;55560;52.174;20.996;2024-02-26T10:51:57;99817.80;;;12.20
68588;BMP180;55560;52.174;20.996;2024-02-26T10:54:29;99820.40;;;12.20
68588;BMP180;55560;52.174;20.996;2024-02-26T10:56:58;99818.60;;;12.20
68588;BMP180;55560;52.174;20.996;2024-02-26T10:59:28;99816.00;;;12.16
68588;BMP180;55560;52.174;20.996;2024-02-26T11:01:57;99807.60;;;12.20
68588;BMP180;55560;52.174;20.996;2024-02-26T11:04:26;99808.20;;;12.20
68588;BMP180;55560;52.174;20.996;2024-02-26T11:06:57;99805.40;;;12.20
68588;BMP180;55560;52.174;20.996;2024-02-26T11:09:27;99800.20;;;12.20
68588;BMP180;55560;52.174;20.996;2024-02-26T11:11:57;99803.40;;;12.40
68588;BMP180;55560;52.174;20.996;2024-02-26T11:14:29;99797.40;;;12.50
68588;BMP180;55560;52.174;20.996;2024-02-26T11:16:57;99798.40;;;12.60
68588;BMP180;55560;52.174;20.996;2024-02-26T11:19:25;99795.60;;;12.70
68588;BMP180;55560;52.174;20.996;2024-02-26T11:21:54;99791.00;;;12.78
68588;BMP180;55560;52.174;20.996;2024-02-26T11:24:22;99791.40;;;12.80
68588;BMP180;55560;52.174;20.996;2024-02-26T11:27:02;99795.80;;;12.90
68588;BMP180;55560;52.174;20.996;2024-02-26T11:29:50;99798.40;;;12.90
68588;BMP180;55560;52.174;20.996;2024-02-26T11:32:20;99793.60;;;12.90
68588;BMP180;55560;52.174;20.996;2024-02-26T11:34:49;99793.80;;;13.00
68588;BMP180;55560;52.174;20.996;2024-02-26T11:37:18;99793.00;;;13.20
68588;BMP180;55560;52.174;20.996;2024-02-26T11:39:46;99794.60;;;13.30
68588;BMP180;55560;52.174;20.996;2024-02-26T11:42:15;99793.40;;;13.42
68588;BMP180;55560;52.174;20.996;2024-02-26T11:44:44;99792.00;;;13.50
68588;BMP180;55560;52.174;20.996;2024-02-26T11:47:17;99797.20;;;13.52
68588;BMP180;55560;52.174;20.996;2024-02-26T11:49:46;99791.80;;;13.50
68588;BMP180;55560;52.174;20.996;2024-02-26T11:52:15;99790.80;;;13.50
68588;BMP180;55560;52.174;20.996;2024-02-26T11:54:51;99786.40;;;13.46
68588;BMP180;55560;52.174;20.996;2024-02-26T11:57:38;99789.00;;;13.40
68588;BMP180;55560;52.174;20.996;2024-02-26T12:00:14;99793.40;;;13.50
68588;BMP180;55560;52.174;20.996;2024-02-26T12:02:47;99792.60;;;13.50
68588;BMP180;55560;52.174;20.996;2024-02-26T12:05:19;99785.80;;;13.58
68588;BMP180;55560;52.174;20.996;2024-02-26T12:07:53;99785.40;;;13.60
68588;BMP180;55560;52.174;20.996;2024-02-26T12:10:31;99785.40;;;13.60
68588;BMP180;55560;52.174;20.996;2024-02-26T12:13:16;99781.00;;;13.60
68588;BMP180;55560;52.174;20.996;2024-02-26T12:15:57;99778.80;;;13.60
68588;BMP180;55560;52.174;20.996;2024-02-26T12:18:28;99778.20;;;13.60
68588;BMP180;55560;52.174;20.996;2024-02-26T12:21:02;99779.80;;;13.60
68588;BMP180;55560;52.174;20.996;2024-02-26T12:23:31;99779.80;;;13.60
68588;BMP180;55560;52.174;20.996;2024-02-26T12:26:02;99780.00;;;13.62
68588;BMP180;55560;52.174;20.996;2024-02-26T12:28:35;99781.60;;;13.70
68588;BMP180;55560;52.174;20.996;2024-02-26T12:31:03;99785.60;;;13.70
68588;BMP180;55560;52.174;20.996;2024-02-26T12:33:31;99785.00;;;13.70
68588;BMP180;55560;52.174;20.996;2024-02-26T12:36:00;99779.40;;;13.80
68588;BMP180;55560;52.174;20.996;2024-02-26T12:38:28;99780.00;;;13.90
68588;BMP180;55560;52.174;20.996;2024-02-26T12:40:58;99786.00;;;14.00
68588;BMP180;55560;52.174;20.996;2024-02-26T12:43:26;99780.80;;;14.08
68588;BMP180;55560;52.174;20.996;2024-02-26T12:45:54;99778.40;;;14.10
68588;BMP180;55560;52.174;20.996;2024-02-26T12:48:22;99777.60;;;14.20
68588;BMP180;55560;52.174;20.996;2024-02-26T12:50:51;99779.40;;;14.30
68588;BMP180;55560;52.174;20.996;2024-02-26T12:53:19;99782.20;;;14.34
68588;BMP180;55560;52.174;20.996;2024-02-26T12:55:47;99778.00;;;14.40
68588;BMP180;55560;52.174;20.996;2024-02-26T12:58:15;99776.20;;;14.50
68588;BMP180;55560;52.174;20.996;2024-02-26T13:00:43;99774.60;;;14.60
68588;BMP180;55560;52.174;20.996;2024-02-26T13:03:12;99774.80;;;14.74
68588;BMP180;55560;52.174;20.996;2024-02-26T13:05:40;99776.20;;;14.82
68588;BMP180;55560;52.174;20.996;2024-02-26T13:08:08;99786.60;;;14.90
68588;BMP180;55560;52.174;20.996;2024-02-26T13:10:36;99784.60;;;15.00
68588;BMP180;55560;52.174;20.996;2024-02-26T13:13:05;99781.60;;;15.10
68588;BMP180;55560;52.174;20.996;2024-02-26T13:15:34;99781.20;;;15.20
68588;BMP180;55560;52.174;20.996;2024-02-26T13:18:14;99780.00;;;15.32
68588;BMP180;55560;52.174;20.996;2024-02-26T13:20:42;99772.60;;;15.40
68588;BMP180;55560;52.174;20.996;2024-02-26T13:23:12;99775.60;;;15.40
68588;BMP180;55560;52.174;20.996;2024-02-26T13:25:40;99772.80;;;15.50
68588;BMP180;55560;52.174;20.996;2024-02-26T13:28:15;99775.80;;;15.60
68588;BMP180;55560;52.174;20.996;2024-02-26T13:30:57;99775.40;;;15.60
68588;BMP180;55560;52.174;20.996;2024-02-26T13:33:28;99778.40;;;15.70
68588;BMP180;55560;52.174;20.996;2024-02-26T13:35:58;99779.80;;;15.74
68588;BMP180;55560;52.174;20.996;2024-02-26T13:38:27;99784.60;;;15.90
68588;BMP180;55560;52.174;20.996;2024-02-26T13:40:56;99787.00;;;15.98
68588;BMP180;55560;52.174;20.996;2024-02-26T13:43:24;99788.60;;;16.00
68588;BMP180;55560;52.174;20.996;2024-02-26T13:45:52;99794.80;;;16.00
68588;BMP180;55560;52.174;20.996;2024-02-26T13:48:20;99793.20;;;15.90
68588;BMP180;55560;52.174;20.996;2024-02-26T13:50:48;99787.80;;;15.90
68588;BMP180;55560;52.174;20.996;2024-02-26T13:53:17;99781.60;;;15.92
68588;BMP180;55560;52.174;20.996;2024-02-26T13:55:45;99782.20;;;16.10
68588;BMP180;55560;52.174;20.996;2024-02-26T13:58:13;99779.20;;;16.20
68588;BMP180;55560;52.174;20.996;2024-02-26T14:00:42;99773.40;;;16.32
68588;BMP180;55560;52.174;20.996;2024-02-26T14:03:11;99769.00;;;16.46
68588;BMP180;55560;52.174;20.996;2024-02-26T14:05:39;99769.80;;;16.60
68588;BMP180;55560;52.174;20.996;2024-02-26T14:08:12;99767.00;;;16.60
68588;BMP180;55560;52.174;20.996;2024-02-26T14:10:41;99769.00;;;16.44
68588;BMP180;55560;52.174;20.996;2024-02-26T14:13:09;99773.20;;;16.28